Time;durP1;ratioP1;P1;durP2;ratioP2;P2;SDS_P1;SDS_P2;PMS_P1;PMS_P2;Temp;Humidity;BMP_temperature;BMP_pressure;BME280_temperature;BME280_humidity;BME280_pressure;Samples;Min_cycle;Max_cycle;Signal;HPM_P1;HPM_P2
2021/07/30 00:00:32;;;;;;;;;;;19.80;69.40;;;;;;491532;240;1034;-45
2021/07/30 00:02:33;;;;;;;;;;;19.80;69.40;;;;;;491597;240;2183;-45
2021/07/30 00:04:34;;;;;;;;;;;19.80;69.40;;;;;;491956;240;1139;-45
2021/07/30 00:06:36;;;;;;;;;;;19.80;69.40;;;;;;491503;240;1334;-45
2021/07/30 00:08:37;;;;;;;;;;;19.80;69.30;;;;;;492003;240;1229;-45
2021/07/30 00:10:38;;;;;;;;;;;19.80;69.30;;;;;;491757;240;1049;-45
2021/07/30 00:12:40;;;;;;;;;;;19.80;69.30;;;;;;491466;240;1186;-45
2021/07/30 00:14:41;;;;;;;;;;;19.70;69.30;;;;;;491596;240;1040;-45
2021/07/30 00:16:42;;;;;;;;;;;19.70;69.40;;;;;;491463;240;1431;-45
2021/07/30 00:18:44;;;;;;;;;;;19.80;69.40;;;;;;491995;240;1275;-45
2021/07/30 00:20:45;;;;;;;;;;;19.70;69.40;;;;;;491880;240;1357;-46
2021/07/30 00:22:46;;;;;;;;;;;19.80;69.40;;;;;;491786;240;2237;-45
2021/07/30 00:24:47;;;;;;;;;;;19.80;69.40;;;;;;491784;240;1179;-45
2021/07/30 00:26:50;;;;;;;;;;;19.80;69.30;;;;;;491357;240;1539;-45
2021/07/30 00:28:50;;;;;;;;;;;19.80;69.30;;;;;;491881;240;2214;-45
2021/07/30 00:30:51;;;;;;;;;;;19.70;69.30;;;;;;491509;240;1222;-45
2021/07/30 00:32:53;;;;;;;;;;;19.80;69.30;;;;;;491954;240;1454;-45
2021/07/30 00:34:54;;;;;;;;;;;19.80;69.30;;;;;;491885;240;1050;-45
2021/07/30 00:36:55;;;;;;;;;;;19.80;69.30;;;;;;491509;240;1345;-45
2021/07/30 00:38:57;;;;;;;;;;;19.80;69.40;;;;;;491586;240;1060;-45
2021/07/30 00:41:00;;;;;;;;;;;19.80;69.30;;;;;;491564;240;1470;-45
2021/07/30 00:43:00;;;;;;;;;;;19.80;69.40;;;;;;491413;240;2173;-45
2021/07/30 00:45:01;;;;;;;;;;;19.80;69.30;;;;;;491640;240;1112;-45
2021/07/30 00:47:02;;;;;;;;;;;19.80;69.30;;;;;;491673;240;1177;-45
2021/07/30 00:49:04;;;;;;;;;;;19.80;69.40;;;;;;491529;240;1037;-45
2021/07/30 00:51:05;;;;;;;;;;;19.80;69.30;;;;;;491738;240;1271;-45
2021/07/30 00:53:07;;;;;;;;;;;19.70;69.30;;;;;;491547;240;1192;-45
2021/07/30 00:55:08;;;;;;;;;;;19.70;69.40;;;;;;491564;240;1048;-45
2021/07/30 00:57:09;;;;;;;;;;;19.80;69.50;;;;;;491934;240;1293;-45
2021/07/30 00:59:11;;;;;;;;;;;19.70;69.40;;;;;;491524;240;1077;-45
2021/07/30 01:01:13;;;;;;;;;;;19.80;69.40;;;;;;491501;240;1331;-45
2021/07/30 01:03:14;;;;;;;;;;;19.70;69.40;;;;;;491530;240;2185;-45
2021/07/30 01:05:15;;;;;;;;;;;19.80;69.40;;;;;;491512;240;1120;-45
2021/07/30 01:07:16;;;;;;;;;;;19.70;69.30;;;;;;491430;240;1173;-45
2021/07/30 01:09:18;;;;;;;;;;;19.70;69.40;;;;;;491960;240;1098;-45
2021/07/30 01:11:19;;;;;;;;;;;19.70;69.40;;;;;;491419;240;1320;-45
2021/07/30 01:13:20;;;;;;;;;;;19.70;69.40;;;;;;491528;240;1159;-45
2021/07/30 01:15:22;;;;;;;;;;;19.70;69.40;;;;;;491922;240;1080;-46
2021/07/30 01:17:24;;;;;;;;;;;19.80;69.50;;;;;;491851;240;1348;-45
2021/07/30 01:19:24;;;;;;;;;;;19.70;69.40;;;;;;491490;240;1630;-45
2021/07/30 01:21:26;;;;;;;;;;;19.70;69.30;;;;;;491744;240;1382;-45
2021/07/30 01:23:27;;;;;;;;;;;19.70;69.30;;;;;;491829;240;2586;-45
2021/07/30 01:25:28;;;;;;;;;;;19.70;69.30;;;;;;491749;240;1004;-46
2021/07/30 01:27:30;;;;;;;;;;;19.80;69.30;;;;;;491613;240;1301;-45
2021/07/30 01:29:31;;;;;;;;;;;19.70;69.30;;;;;;492052;240;1112;-45
2021/07/30 01:31:32;;;;;;;;;;;19.70;69.30;;;;;;491401;240;1462;-45
2021/07/30 01:33:33;;;;;;;;;;;19.70;69.30;;;;;;491488;240;1118;-45
2021/07/30 01:35:35;;;;;;;;;;;19.80;69.30;;;;;;491456;240;1056;-46
2021/07/30 01:37:36;;;;;;;;;;;19.70;69.30;;;;;;491476;240;1285;-45
2021/07/30 01:39:37;;;;;;;;;;;19.80;69.30;;;;;;491785;240;1061;-45
2021/07/30 01:41:40;;;;;;;;;;;19.70;69.30;;;;;;491659;240;1406;-45
2021/07/30 01:43:40;;;;;;;;;;;19.70;69.40;;;;;;491528;240;2188;-45
2021/07/30 01:45:42;;;;;;;;;;;19.80;69.40;;;;;;491468;240;1102;-45
2021/07/30 01:47:43;;;;;;;;;;;19.70;69.30;;;;;;491656;240;1161;-45
2021/07/30 01:49:44;;;;;;;;;;;19.70;69.30;;;;;;491612;240;1117;-45
2021/07/30 01:51:46;;;;;;;;;;;19.70;69.40;;;;;;491620;240;1248;-46
2021/07/30 01:53:47;;;;;;;;;;;19.70;69.40;;;;;;491537;240;1053;-45
2021/07/30 01:55:48;;;;;;;;;;;19.70;69.40;;;;;;491467;240;1089;-45
2021/07/30 01:57:50;;;;;;;;;;;19.70;69.40;;;;;;491945;240;1120;-45
2021/07/30 01:59:51;;;;;;;;;;;19.70;69.40;;;;;;491879;240;1596;-45
2021/07/30 02:01:52;;;;;;;;;;;19.70;69.30;;;;;;491952;240;1226;-45
2021/07/30 02:03:54;;;;;;;;;;;19.70;69.40;;;;;;491567;240;2133;-45
2021/07/30 02:05:55;;;;;;;;;;;19.70;69.40;;;;;;491370;240;1216;-45
2021/07/30 02:07:56;;;;;;;;;;;19.70;69.40;;;;;;491427;240;1279;-45
2021/07/30 02:09:58;;;;;;;;;;;19.70;69.40;;;;;;492016;240;1039;-45
2021/07/30 02:11:59;;;;;;;;;;;19.70;69.50;;;;;;491707;240;1357;-45
2021/07/30 02:14:16;;;;;;;;;;;19.70;69.50;;;;;;491793;240;1055;-46
2021/07/30 02:16:17;;;;;;;;;;;19.70;69.40;;;;;;491441;240;1211;-45
2021/07/30 02:18:18;;;;;;;;;;;19.70;69.50;;;;;;491999;240;1033;-45
2021/07/30 02:20:19;;;;;;;;;;;19.70;69.40;;;;;;492029;240;1069;-45
2021/07/30 02:22:21;;;;;;;;;;;19.70;69.40;;;;;;491496;240;1313;-45
2021/07/30 02:24:23;;;;;;;;;;;19.70;69.50;;;;;;491661;240;2196;-45
2021/07/30 02:26:23;;;;;;;;;;;19.70;69.40;;;;;;491524;240;1629;-45
2021/07/30 02:28:25;;;;;;;;;;;19.70;69.40;;;;;;491513;240;967;-45
2021/07/30 02:30:26;;;;;;;;;;;19.80;69.30;;;;;;492042;240;1051;-45
2021/07/30 02:32:27;;;;;;;;;;;19.70;69.40;;;;;;491723;240;1322;-45
2021/07/30 02:34:29;;;;;;;;;;;19.70;69.40;;;;;;491430;240;1060;-45
2021/07/30 02:36:30;;;;;;;;;;;19.70;69.40;;;;;;491719;240;1576;-45
2021/07/30 02:38:31;;;;;;;;;;;19.70;69.40;;;;;;491636;240;1181;-45
2021/07/30 02:40:34;;;;;;;;;;;19.70;69.40;;;;;;491573;240;1049;-45
2021/07/30 02:42:34;;;;;;;;;;;19.70;69.40;;;;;;491486;240;2932;-45
2021/07/30 02:44:35;;;;;;;;;;;19.70;69.30;;;;;;491647;240;2195;-45
2021/07/30 02:46:37;;;;;;;;;;;19.70;69.40;;;;;;491761;240;1511;-45
2021/07/30 02:48:38;;;;;;;;;;;19.70;69.40;;;;;;491440;240;1131;-45
2021/07/30 02:50:39;;;;;;;;;;;19.70;69.30;;;;;;491557;240;1058;-45
2021/07/30 02:52:41;;;;;;;;;;;19.70;69.40;;;;;;491388;240;1343;-45
2021/07/30 02:54:42;;;;;;;;;;;19.70;69.30;;;;;;491769;240;1035;-45
2021/07/30 02:56:43;;;;;;;;;;;19.70;69.40;;;;;;491898;240;1442;-45
2021/07/30 02:58:45;;;;;;;;;;;19.70;69.40;;;;;;491495;240;1047;-45
2021/07/30 03:00:46;;;;;;;;;;;19.70;69.60;;;;;;491991;240;1107;-45
2021/07/30 03:02:49;;;;;;;;;;;19.70;69.50;;;;;;491707;240;1069;-45
2021/07/30 03:04:49;;;;;;;;;;;19.70;69.40;;;;;;491664;240;2200;-45
2021/07/30 03:06:50;;;;;;;;;;;19.70;69.40;;;;;;491735;240;1161;-45
2021/07/30 03:08:51;;;;;;;;;;;19.70;69.50;;;;;;491580;240;1188;-45
2021/07/30 03:10:53;;;;;;;;;;;19.70;69.50;;;;;;491972;240;1206;-45
2021/07/30 03:12:54;;;;;;;;;;;19.70;69.50;;;;;;491554;240;1235;-45
2021/07/30 03:14:55;;;;;;;;;;;19.70;69.40;;;;;;491857;240;1082;-45
2021/07/30 03:16:57;;;;;;;;;;;19.70;69.40;;;;;;491645;240;1255;-45
2021/07/30 03:18:58;;;;;;;;;;;19.70;69.50;;;;;;491768;240;1128;-45
2021/07/30 03:20:59;;;;;;;;;;;19.70;69.50;;;;;;491962;240;1169;-45
2021/07/30 03:23:01;;;;;;;;;;;19.70;69.50;;;;;;491496;240;1115;-45
2021/07/30 03:25:02;;;;;;;;;;;19.70;69.50;;;;;;491493;240;2193;-45
2021/07/30 03:27:03;;;;;;;;;;;19.70;69.50;;;;;;491925;240;1304;-45
2021/07/30 03:29:05;;;;;;;;;;;19.70;69.30;;;;;;491559;240;1062;-45
2021/07/30 03:31:06;;;;;;;;;;;19.70;69.40;;;;;;491801;240;1057;-45
2021/07/30 03:33:07;;;;;;;;;;;19.70;69.50;;;;;;491590;240;1211;-45
2021/07/30 03:35:09;;;;;;;;;;;19.70;69.50;;;;;;491571;240;1067;-45
2021/07/30 03:37:10;;;;;;;;;;;19.70;69.30;;;;;;491751;240;1387;-45
2021/07/30 03:39:11;;;;;;;;;;;19.70;69.40;;;;;;491554;240;1219;-45
2021/07/30 03:41:12;;;;;;;;;;;19.70;69.50;;;;;;491530;240;1487;-45
2021/07/30 03:43:14;;;;;;;;;;;19.70;69.50;;;;;;491568;240;1196;-45
2021/07/30 03:45:15;;;;;;;;;;;19.70;69.50;;;;;;491464;240;2133;-45
2021/07/30 03:47:17;;;;;;;;;;;19.70;69.50;;;;;;491385;240;1203;-45
2021/07/30 03:49:18;;;;;;;;;;;19.70;69.50;;;;;;491513;240;1071;-45
2021/07/30 03:51:19;;;;;;;;;;;19.70;69.40;;;;;;491670;240;1209;-45
2021/07/30 03:53:20;;;;;;;;;;;19.70;69.50;;;;;;491700;240;1228;-45
2021/07/30 03:55:22;;;;;;;;;;;19.70;69.40;;;;;;491895;240;1081;-45
2021/07/30 03:57:23;;;;;;;;;;;19.70;69.50;;;;;;491344;240;1243;-45
2021/07/30 03:59:24;;;;;;;;;;;19.70;69.40;;;;;;491582;240;1072;-45
2021/07/30 04:01:26;;;;;;;;;;;19.70;69.40;;;;;;491815;240;1353;-45
2021/07/30 04:03:27;;;;;;;;;;;19.70;69.50;;;;;;491577;240;1235;-45
2021/07/30 04:05:28;;;;;;;;;;;19.70;69.50;;;;;;491509;240;2192;-45
2021/07/30 04:07:30;;;;;;;;;;;19.70;69.40;;;;;;491863;240;1126;-45
2021/07/30 04:09:31;;;;;;;;;;;19.70;69.40;;;;;;491572;240;1246;-45
2021/07/30 04:11:32;;;;;;;;;;;19.70;69.50;;;;;;491427;240;1193;-45
2021/07/30 04:13:34;;;;;;;;;;;19.70;69.50;;;;;;491684;240;1236;-45
2021/07/30 04:15:35;;;;;;;;;;;19.70;69.40;;;;;;491596;240;1125;-45
2021/07/30 04:17:36;;;;;;;;;;;19.70;69.50;;;;;;491417;240;1531;-45
2021/07/30 04:19:43;;;;;;;;;;;19.60;69.50;;;;;;491479;240;1103;-45
2021/07/30 04:21:39;;;;;;;;;;;19.70;69.50;;;;;;491432;240;2012;-45
2021/07/30 04:23:40;;;;;;;;;;;19.70;69.60;;;;;;491564;240;1226;-45
2021/07/30 04:25:41;;;;;;;;;;;19.70;69.60;;;;;;491681;240;2125;-45
2021/07/30 04:27:43;;;;;;;;;;;19.60;69.50;;;;;;491240;240;1181;-45
2021/07/30 04:29:44;;;;;;;;;;;19.70;69.50;;;;;;491515;240;1166;-45
2021/07/30 04:31:45;;;;;;;;;;;19.70;69.60;;;;;;491266;240;1244;-45
2021/07/30 04:33:47;;;;;;;;;;;19.60;69.50;;;;;;491784;240;1036;-45
2021/07/30 04:35:48;;;;;;;;;;;19.70;69.60;;;;;;491446;240;1042;-45
2021/07/30 04:37:50;;;;;;;;;;;19.60;69.50;;;;;;491853;240;1527;-45
2021/07/30 04:39:51;;;;;;;;;;;19.60;69.60;;;;;;491569;240;1187;-45
2021/07/30 04:41:52;;;;;;;;;;;19.60;69.60;;;;;;491475;240;1152;-45
2021/07/30 04:43:54;;;;;;;;;;;19.60;69.50;;;;;;491514;240;1076;-45
2021/07/30 04:45:55;;;;;;;;;;;19.70;69.60;;;;;;491360;240;2188;-45
2021/07/30 04:47:56;;;;;;;;;;;19.70;69.50;;;;;;491357;240;1082;-45
2021/07/30 04:49:58;;;;;;;;;;;19.60;69.40;;;;;;491394;240;1070;-45
2021/07/30 04:51:59;;;;;;;;;;;19.70;69.50;;;;;;491189;240;1241;-45
2021/07/30 04:54:00;;;;;;;;;;;19.60;69.50;;;;;;491296;240;1290;-45
2021/07/30 04:56:02;;;;;;;;;;;19.60;69.50;;;;;;491486;240;1232;-45
2021/07/30 04:58:03;;;;;;;;;;;19.60;69.50;;;;;;491390;240;1263;-45
2021/07/30 05:00:04;;;;;;;;;;;19.60;69.60;;;;;;491391;240;1054;-45
2021/07/30 05:02:09;;;;;;;;;;;19.60;69.50;;;;;;491432;240;1320;-45
2021/07/30 05:04:08;;;;;;;;;;;19.60;69.60;;;;;;491311;240;2136;-45
2021/07/30 05:06:09;;;;;;;;;;;19.60;69.60;;;;;;491245;240;1418;-45
2021/07/30 05:08:11;;;;;;;;;;;19.60;69.60;;;;;;491299;240;1194;-45
2021/07/30 05:10:12;;;;;;;;;;;19.60;69.50;;;;;;491383;240;1328;-45
2021/07/30 05:12:14;;;;;;;;;;;19.60;69.50;;;;;;491425;240;1521;-45
2021/07/30 05:14:15;;;;;;;;;;;19.70;69.50;;;;;;491283;240;1239;-45
2021/07/30 05:16:16;;;;;;;;;;;19.60;69.40;;;;;;491244;240;1468;-45
2021/07/30 05:18:18;;;;;;;;;;;19.60;69.50;;;;;;491260;240;1155;-45
2021/07/30 05:20:19;;;;;;;;;;;19.70;69.50;;;;;;491344;240;1065;-45
2021/07/30 05:22:20;;;;;;;;;;;19.70;69.50;;;;;;491194;240;1450;-45
2021/07/30 05:24:21;;;;;;;;;;;19.60;69.60;;;;;;491508;240;2224;-45
2021/07/30 05:26:23;;;;;;;;;;;19.60;69.50;;;;;;491464;240;1367;-45
2021/07/30 05:28:24;;;;;;;;;;;19.60;69.60;;;;;;491241;240;1221;-45
2021/07/30 05:30:26;;;;;;;;;;;19.60;69.60;;;;;;491430;240;1257;-45
2021/07/30 05:32:27;;;;;;;;;;;19.60;69.60;;;;;;491421;240;1160;-45
2021/07/30 05:34:29;;;;;;;;;;;19.70;69.60;;;;;;491299;240;1107;-45
2021/07/30 05:36:30;;;;;;;;;;;19.70;69.60;;;;;;491292;240;2064;-45
2021/07/30 05:38:31;;;;;;;;;;;19.70;69.60;;;;;;491365;240;1132;-45
2021/07/30 05:40:32;;;;;;;;;;;19.70;69.60;;;;;;491187;240;1187;-46
2021/07/30 05:42:35;;;;;;;;;;;19.70;69.60;;;;;;491249;240;1126;-45
2021/07/30 05:44:37;;;;;;;;;;;19.80;69.50;;;;;;491408;240;2195;-45
2021/07/30 05:46:38;;;;;;;;;;;19.80;69.50;;;;;;491307;240;1226;-45
2021/07/30 05:48:39;;;;;;;;;;;19.80;69.50;;;;;;491240;240;1097;-45
2021/07/30 05:50:41;;;;;;;;;;;19.80;69.60;;;;;;491307;240;1247;-45
2021/07/30 05:52:42;;;;;;;;;;;19.80;69.60;;;;;;491236;240;1188;-45
2021/07/30 05:54:43;;;;;;;;;;;19.80;69.50;;;;;;491245;240;1221;-45
2021/07/30 05:56:45;;;;;;;;;;;19.90;69.60;;;;;;491547;240;1312;-45
2021/07/30 05:58:46;;;;;;;;;;;19.90;69.60;;;;;;491302;240;1257;-45
2021/07/30 06:00:47;;;;;;;;;;;19.90;69.60;;;;;;491164;240;1477;-45
2021/07/30 06:02:49;;;;;;;;;;;19.90;69.60;;;;;;491277;240;1239;-45
2021/07/30 06:04:50;;;;;;;;;;;19.90;69.70;;;;;;491348;240;2175;-45
2021/07/30 06:06:51;;;;;;;;;;;19.90;69.60;;;;;;491325;240;1166;-45
2021/07/30 06:08:53;;;;;;;;;;;19.90;69.60;;;;;;491170;240;1161;-45
2021/07/30 06:10:54;;;;;;;;;;;19.90;69.70;;;;;;491015;240;1269;-45
2021/07/30 06:12:55;;;;;;;;;;;19.90;69.60;;;;;;491398;240;1180;-46
2021/07/30 06:14:57;;;;;;;;;;;19.90;69.60;;;;;;491033;240;1095;-45
2021/07/30 06:16:58;;;;;;;;;;;19.90;69.70;;;;;;490999;240;1206;-45
2021/07/30 06:18:59;;;;;;;;;;;20.00;69.80;;;;;;491157;240;1248;-45
2021/07/30 06:21:01;;;;;;;;;;;19.90;69.90;;;;;;491037;240;1229;-45
2021/07/30 06:23:02;;;;;;;;;;;19.90;69.90;;;;;;491083;240;1149;-45
2021/07/30 06:25:03;;;;;;;;;;;19.80;69.90;;;;;;491067;240;2124;-45
2021/07/30 06:27:07;;;;;;;;;;;19.80;70.00;;;;;;491288;240;1329;-45
2021/07/30 06:29:08;;;;;;;;;;;19.80;70.00;;;;;;491067;240;1127;-45
2021/07/30 06:31:09;;;;;;;;;;;19.80;70.00;;;;;;490993;240;1100;-45
2021/07/30 06:33:10;;;;;;;;;;;19.80;70.00;;;;;;491033;240;1146;-45
2021/07/30 06:35:13;;;;;;;;;;;19.80;70.00;;;;;;490947;240;1117;-45
2021/07/30 06:37:13;;;;;;;;;;;19.80;70.10;;;;;;490967;240;1877;-45
2021/07/30 06:39:15;;;;;;;;;;;19.80;70.00;;;;;;491176;240;1116;-44
2021/07/30 06:41:17;;;;;;;;;;;19.80;70.20;;;;;;491197;240;1214;-46
2021/07/30 06:43:17;;;;;;;;;;;19.80;70.00;;;;;;491095;240;2192;-44
2021/07/30 06:45:18;;;;;;;;;;;19.80;70.10;;;;;;490858;240;2195;-45
2021/07/30 06:47:22;;;;;;;;;;;19.80;70.10;;;;;;490882;240;1294;-45
2021/07/30 06:49:21;;;;;;;;;;;19.80;70.00;;;;;;491057;240;2395;-45
2021/07/30 06:51:22;;;;;;;;;;;19.80;70.00;;;;;;490894;240;1249;-45
2021/07/30 06:53:24;;;;;;;;;;;19.80;70.00;;;;;;490911;240;1221;-45
2021/07/30 06:55:25;;;;;;;;;;;19.80;70.10;;;;;;490829;240;1326;-45
2021/07/30 06:57:26;;;;;;;;;;;19.70;70.10;;;;;;490754;240;1561;-46
2021/07/30 06:59:28;;;;;;;;;;;19.70;70.00;;;;;;490940;240;1249;-45
2021/07/30 07:01:29;;;;;;;;;;;19.70;70.10;;;;;;490737;240;1340;-45
2021/07/30 07:03:30;;;;;;;;;;;19.70;70.00;;;;;;490739;240;1240;-45
2021/07/30 07:05:32;;;;;;;;;;;19.70;70.00;;;;;;490970;240;2136;-45
2021/07/30 07:07:33;;;;;;;;;;;19.70;70.10;;;;;;490875;240;1220;-45
2021/07/30 07:09:35;;;;;;;;;;;19.70;70.00;;;;;;490800;240;1098;-45
2021/07/30 07:11:36;;;;;;;;;;;19.70;70.00;;;;;;490769;240;1635;-45
2021/07/30 07:13:38;;;;;;;;;;;19.70;70.10;;;;;;490896;240;1037;-45
2021/07/30 07:15:39;;;;;;;;;;;19.70;70.10;;;;;;490990;240;1226;-45
2021/07/30 07:17:40;;;;;;;;;;;19.70;70.00;;;;;;490867;240;1182;-45
2021/07/30 07:19:42;;;;;;;;;;;19.70;70.10;;;;;;491009;240;1441;-45
2021/07/30 07:21:44;;;;;;;;;;;19.70;70.00;;;;;;490910;240;1185;-45
2021/07/30 07:23:45;;;;;;;;;;;19.70;69.90;;;;;;490934;240;1062;-45
2021/07/30 07:25:46;;;;;;;;;;;19.70;69.90;;;;;;490770;240;2204;-45
2021/07/30 07:27:48;;;;;;;;;;;19.70;70.00;;;;;;490910;240;1307;-45
2021/07/30 07:29:49;;;;;;;;;;;19.70;70.00;;;;;;490946;240;1139;-45
2021/07/30 07:31:50;;;;;;;;;;;19.70;70.00;;;;;;490864;240;1327;-45
2021/07/30 07:33:52;;;;;;;;;;;19.70;69.90;;;;;;490859;240;1077;-45
2021/07/30 07:35:54;;;;;;;;;;;19.70;69.90;;;;;;490735;240;1285;-45
2021/07/30 07:37:55;;;;;;;;;;;19.70;70.00;;;;;;490634;240;1078;-45
2021/07/30 07:39:56;;;;;;;;;;;19.70;70.10;;;;;;490795;240;1217;-46
2021/07/30 07:41:58;;;;;;;;;;;19.70;70.00;;;;;;490793;240;1387;-45
2021/07/30 07:43:59;;;;;;;;;;;19.70;69.90;;;;;;490627;240;1096;-46
2021/07/30 07:46:00;;;;;;;;;;;19.70;70.00;;;;;;490545;240;2144;-45
2021/07/30 07:48:02;;;;;;;;;;;19.70;70.00;;;;;;490555;240;1287;-45
2021/07/30 07:50:03;;;;;;;;;;;19.70;70.00;;;;;;490729;240;1070;-45
2021/07/30 07:52:04;;;;;;;;;;;19.70;70.00;;;;;;490580;240;1233;-45
2021/07/30 07:54:06;;;;;;;;;;;19.70;70.00;;;;;;490614;240;1214;-46
2021/07/30 07:56:08;;;;;;;;;;;19.70;70.00;;;;;;490599;240;1358;-45
2021/07/30 07:58:08;;;;;;;;;;;19.60;70.00;;;;;;490607;240;2147;-45
2021/07/30 08:00:10;;;;;;;;;;;19.70;70.00;;;;;;490716;240;1087;-45
2021/07/30 08:02:11;;;;;;;;;;;19.70;69.90;;;;;;490567;240;1345;-45
2021/07/30 08:04:12;;;;;;;;;;;19.70;69.90;;;;;;490581;240;1359;-45
2021/07/30 08:06:14;;;;;;;;;;;19.70;70.00;;;;;;490506;240;2195;-45
2021/07/30 08:08:15;;;;;;;;;;;19.70;70.00;;;;;;490624;240;1117;-45
2021/07/30 08:10:16;;;;;;;;;;;19.70;69.90;;;;;;490520;240;1173;-45
2021/07/30 08:12:18;;;;;;;;;;;19.70;69.90;;;;;;490542;240;1299;-45
2021/07/30 08:14:19;;;;;;;;;;;19.70;69.80;;;;;;490618;240;1106;-45
2021/07/30 08:16:20;;;;;;;;;;;19.70;69.80;;;;;;490599;240;1334;-45
2021/07/30 08:18:22;;;;;;;;;;;19.70;69.80;;;;;;490569;240;1079;-45
2021/07/30 08:20:23;;;;;;;;;;;19.70;69.90;;;;;;490735;240;1390;-45
2021/07/30 08:22:25;;;;;;;;;;;19.70;69.90;;;;;;490519;240;1170;-45
2021/07/30 08:24:26;;;;;;;;;;;19.80;69.80;;;;;;490709;240;1242;-45
2021/07/30 08:26:27;;;;;;;;;;;19.70;69.80;;;;;;490572;240;2196;-46
2021/07/30 08:28:29;;;;;;;;;;;19.70;69.80;;;;;;490589;240;1095;-45
2021/07/30 08:30:30;;;;;;;;;;;19.70;69.80;;;;;;490719;240;1196;-45
2021/07/30 08:32:31;;;;;;;;;;;19.70;69.80;;;;;;490768;240;1059;-45
2021/07/30 08:34:33;;;;;;;;;;;19.70;69.80;;;;;;490616;240;1096;-45
2021/07/30 08:36:34;;;;;;;;;;;19.70;69.80;;;;;;490490;240;1279;-45
2021/07/30 08:38:35;;;;;;;;;;;19.70;69.80;;;;;;490595;240;1360;-45
2021/07/30 08:40:37;;;;;;;;;;;19.70;69.70;;;;;;490705;240;1426;-45
2021/07/30 08:42:38;;;;;;;;;;;19.70;69.70;;;;;;490785;240;1199;-45
2021/07/30 08:44:39;;;;;;;;;;;19.70;69.80;;;;;;490560;240;1174;-45
2021/07/30 08:46:40;;;;;;;;;;;19.70;69.80;;;;;;490505;240;2137;-45
2021/07/30 08:48:42;;;;;;;;;;;19.70;69.70;;;;;;490606;240;1114;-45
2021/07/30 08:50:43;;;;;;;;;;;19.70;69.80;;;;;;490522;240;1099;-45
2021/07/30 08:52:45;;;;;;;;;;;19.70;69.70;;;;;;490523;240;1128;-46
2021/07/30 08:54:46;;;;;;;;;;;19.70;69.80;;;;;;490619;240;1116;-45
2021/07/30 08:56:47;;;;;;;;;;;19.70;69.80;;;;;;490588;240;1209;-45
2021/07/30 08:58:49;;;;;;;;;;;19.60;69.80;;;;;;490535;240;1166;-45
2021/07/30 09:00:50;;;;;;;;;;;19.60;69.90;;;;;;490442;240;1109;-45
2021/07/30 09:02:51;;;;;;;;;;;19.60;69.90;;;;;;490508;240;1233;-45
2021/07/30 09:04:53;;;;;;;;;;;19.60;69.90;;;;;;490605;240;1092;-46
2021/07/30 09:06:54;;;;;;;;;;;19.60;69.90;;;;;;490771;240;2165;-45
2021/07/30 09:08:55;;;;;;;;;;;19.60;69.90;;;;;;490640;240;1150;-45
2021/07/30 09:10:57;;;;;;;;;;;19.60;69.90;;;;;;490550;240;1100;-45
2021/07/30 09:12:58;;;;;;;;;;;19.60;69.90;;;;;;490589;240;1214;-45
2021/07/30 09:15:00;;;;;;;;;;;19.60;70.10;;;;;;490657;240;1229;-45
2021/07/30 09:17:01;;;;;;;;;;;19.60;69.90;;;;;;490522;240;1137;-45
2021/07/30 09:19:02;;;;;;;;;;;19.60;69.90;;;;;;490475;240;1180;-45
2021/07/30 09:21:03;;;;;;;;;;;19.60;69.90;;;;;;490438;240;1318;-45
2021/07/30 09:23:05;;;;;;;;;;;19.60;70.00;;;;;;490555;240;1411;-45
2021/07/30 09:25:06;;;;;;;;;;;19.60;69.90;;;;;;490501;240;1474;-45
2021/07/30 09:27:08;;;;;;;;;;;19.60;69.80;;;;;;490662;240;2185;-45
2021/07/30 09:29:10;;;;;;;;;;;19.60;69.90;;;;;;490583;240;1090;-45
2021/07/30 09:31:11;;;;;;;;;;;19.60;69.90;;;;;;490618;240;1203;-45
2021/07/30 09:33:12;;;;;;;;;;;19.60;69.90;;;;;;490591;240;1125;-45
2021/07/30 09:35:13;;;;;;;;;;;19.60;69.80;;;;;;490585;240;1192;-45
2021/07/30 09:37:15;;;;;;;;;;;19.60;69.80;;;;;;490536;240;1276;-45
2021/07/30 09:39:16;;;;;;;;;;;19.60;69.90;;;;;;490571;240;1076;-44
2021/07/30 09:41:18;;;;;;;;;;;19.60;69.80;;;;;;490160;240;1361;-45
2021/07/30 09:43:19;;;;;;;;;;;19.60;69.80;;;;;;490646;240;1263;-45
2021/07/30 09:45:20;;;;;;;;;;;19.60;69.80;;;;;;490747;240;1083;-45
2021/07/30 09:47:22;;;;;;;;;;;19.60;69.90;;;;;;490685;240;2199;-45
2021/07/30 09:49:23;;;;;;;;;;;19.60;69.80;;;;;;490716;240;1145;-45
2021/07/30 09:51:24;;;;;;;;;;;19.60;69.80;;;;;;490672;240;1164;-45
2021/07/30 09:53:25;;;;;;;;;;;19.60;69.70;;;;;;490648;240;1143;-44
2021/07/30 09:55:27;;;;;;;;;;;19.60;69.70;;;;;;490457;240;1322;-45
2021/07/30 09:57:28;;;;;;;;;;;19.60;69.70;;;;;;490526;240;1213;-45
2021/07/30 09:59:29;;;;;;;;;;;19.50;69.80;;;;;;490707;240;1162;-45
2021/07/30 10:01:31;;;;;;;;;;;19.50;69.80;;;;;;490606;240;1143;-45
2021/07/30 10:03:32;;;;;;;;;;;19.50;69.80;;;;;;490740;240;1171;-45
2021/07/30 10:05:35;;;;;;;;;;;19.50;69.70;;;;;;490638;240;1314;-45
2021/07/30 10:07:36;;;;;;;;;;;19.60;69.80;;;;;;490582;240;2184;-46
2021/07/30 10:09:36;;;;;;;;;;;19.50;69.80;;;;;;491121;240;1942;-45
2021/07/30 10:11:39;;;;;;;;;;;19.50;69.80;;;;;;491215;240;1102;-45
2021/07/30 10:13:46;;;;;;;;;;;19.50;69.80;;;;;;491199;240;1903;-45
2021/07/30 10:15:40;;;;;;;;;;;19.50;69.80;;;;;;491083;240;1632;-45
2021/07/30 10:17:42;;;;;;;;;;;19.60;69.70;;;;;;490895;240;1300;-45
2021/07/30 10:19:43;;;;;;;;;;;19.50;69.70;;;;;;491026;240;1270;-45
2021/07/30 10:21:44;;;;;;;;;;;19.50;69.80;;;;;;490882;240;1316;-45
2021/07/30 10:23:46;;;;;;;;;;;19.50;69.80;;;;;;491451;240;1105;-45
2021/07/30 10:25:47;;;;;;;;;;;19.50;69.80;;;;;;491294;240;1041;-45
2021/07/30 10:27:48;;;;;;;;;;;19.50;69.80;;;;;;490922;240;2196;-45
2021/07/30 10:29:49;;;;;;;;;;;19.50;69.70;;;;;;491592;240;1007;-45
2021/07/30 10:31:51;;;;;;;;;;;19.50;69.70;;;;;;490794;240;1110;-45
2021/07/30 10:33:52;;;;;;;;;;;19.50;69.70;;;;;;491293;240;877;-45
2021/07/30 10:35:53;;;;;;;;;;;19.50;69.80;;;;;;490821;240;1293;-45
2021/07/30 10:37:55;;;;;;;;;;;19.50;69.70;;;;;;491277;240;959;-45
2021/07/30 10:39:56;;;;;;;;;;;19.50;69.70;;;;;;491115;240;810;-45
2021/07/30 10:41:57;;;;;;;;;;;19.50;69.70;;;;;;490600;240;1106;-45
2021/07/30 10:43:59;;;;;;;;;;;19.50;69.70;;;;;;490920;240;1109;-45
2021/07/30 10:46:00;;;;;;;;;;;19.50;69.70;;;;;;490776;240;1448;-45
2021/07/30 10:48:01;;;;;;;;;;;19.50;69.80;;;;;;491150;240;2180;-45
2021/07/30 10:50:03;;;;;;;;;;;19.50;69.80;;;;;;490715;240;750;-45
2021/07/30 10:52:04;;;;;;;;;;;19.50;69.70;;;;;;490610;240;1270;-45
2021/07/30 10:54:05;;;;;;;;;;;19.50;69.70;;;;;;491026;240;1036;-45
2021/07/30 10:56:07;;;;;;;;;;;19.50;69.70;;;;;;490636;240;1484;-45
2021/07/30 10:58:08;;;;;;;;;;;19.50;69.60;;;;;;490584;240;1520;-45
2021/07/30 11:00:09;;;;;;;;;;;19.50;69.70;;;;;;490717;240;1225;-45
2021/07/30 11:02:11;;;;;;;;;;;19.50;69.70;;;;;;490746;240;1098;-45
2021/07/30 11:04:12;;;;;;;;;;;19.50;69.60;;;;;;490739;240;1097;-45
2021/07/30 11:06:13;;;;;;;;;;;19.60;69.60;;;;;;490731;240;1158;-45
2021/07/30 11:08:15;;;;;;;;;;;19.50;69.50;;;;;;490767;240;2172;-45
2021/07/30 11:10:16;;;;;;;;;;;19.50;69.70;;;;;;490778;240;1076;-45
2021/07/30 11:12:18;;;;;;;;;;;19.50;69.60;;;;;;490850;240;1083;-45
2021/07/30 11:14:19;;;;;;;;;;;19.50;69.60;;;;;;490815;240;1206;-45
2021/07/30 11:16:20;;;;;;;;;;;19.50;69.60;;;;;;490779;240;1049;-45
2021/07/30 11:18:22;;;;;;;;;;;19.50;69.60;;;;;;490859;240;1059;-45
2021/07/30 11:20:23;;;;;;;;;;;19.50;69.60;;;;;;490691;240;1177;-45
2021/07/30 11:22:26;;;;;;;;;;;19.50;69.60;;;;;;490734;240;1117;-45
2021/07/30 11:24:26;;;;;;;;;;;19.50;69.60;;;;;;490676;240;1987;-45
2021/07/30 11:26:27;;;;;;;;;;;19.50;69.60;;;;;;490625;240;2141;-45
2021/07/30 11:28:28;;;;;;;;;;;19.50;69.60;;;;;;490655;240;1165;-45
2021/07/30 11:30:29;;;;;;;;;;;19.60;69.60;;;;;;490865;240;1158;-46
2021/07/30 11:32:32;;;;;;;;;;;19.50;69.50;;;;;;490708;240;1102;-45
2021/07/30 11:34:32;;;;;;;;;;;19.50;69.50;;;;;;490769;240;2042;-45
2021/07/30 11:36:34;;;;;;;;;;;19.50;69.50;;;;;;490797;240;1091;-45
2021/07/30 11:38:35;;;;;;;;;;;19.60;69.60;;;;;;490831;240;1102;-45
2021/07/30 11:40:38;;;;;;;;;;;19.60;69.60;;;;;;490633;240;1116;-45
2021/07/30 11:42:39;;;;;;;;;;;19.50;69.60;;;;;;490570;240;2098;-45
2021/07/30 11:44:39;;;;;;;;;;;19.50;69.60;;;;;;490702;240;2233;-45
2021/07/30 11:46:40;;;;;;;;;;;19.40;69.80;;;;;;490800;240;2199;-45
2021/07/30 11:48:42;;;;;;;;;;;19.40;70.00;;;;;;490685;240;1056;-45
2021/07/30 11:50:43;;;;;;;;;;;19.40;70.00;;;;;;490555;240;1324;-45
2021/07/30 11:52:45;;;;;;;;;;;19.40;70.10;;;;;;490612;240;1196;-45
2021/07/30 11:54:46;;;;;;;;;;;19.40;70.10;;;;;;490640;240;1742;-45
2021/07/30 11:56:47;;;;;;;;;;;19.30;70.10;;;;;;490875;240;1169;-45